createdAt,value
2023-01-17T00:04:21.989Z,3.39
2023-01-17T00:08:43.972Z,3.39
2023-01-17T00:12:53.852Z,3.39
2023-01-17T00:16:57.209Z,3.40
2023-01-17T00:21:19.063Z,3.40
2023-01-17T00:25:47.705Z,3.39
2023-01-17T00:29:51.056Z,3.39
2023-01-17T00:33:54.362Z,3.38
2023-01-17T00:38:09.103Z,3.35
2023-01-17T00:42:12.392Z,3.33
2023-01-17T00:46:34.443Z,3.32
2023-01-17T00:50:57.142Z,3.32
2023-01-17T00:55:19.262Z,3.34
2023-01-17T00:59:41.659Z,3.35
2023-01-17T01:04:03.611Z,3.35
2023-01-17T01:08:55.123Z,3.34
2023-01-17T01:13:17.200Z,3.33
2023-01-17T01:17:39.443Z,3.32
2023-01-17T01:22:02.482Z,3.33
2023-01-17T01:26:24.588Z,3.34
2023-01-17T01:30:46.644Z,3.37
2023-01-17T01:34:49.970Z,3.40
2023-01-17T01:38:54.782Z,3.42
2023-01-17T01:43:00.468Z,3.44
2023-01-17T01:47:05.312Z,3.43
2023-01-17T01:51:13.807Z,3.43
2023-01-17T01:55:27.333Z,3.42
2023-01-17T01:59:33.491Z,3.40
2023-01-17T02:03:40.711Z,3.38
2023-01-17T02:07:52.129Z,3.39
2023-01-17T02:11:56.128Z,3.39
2023-01-17T02:16:36.677Z,3.38
2023-01-17T02:21:06.142Z,3.37
2023-01-17T02:25:31.593Z,3.37
2023-01-17T02:29:55.091Z,3.38
2023-01-17T02:34:15.679Z,3.36
2023-01-17T02:38:49.819Z,3.36
2023-01-17T02:43:06.042Z,3.37
2023-01-17T02:47:22.072Z,3.38
2023-01-17T02:51:56.608Z,3.37
2023-01-17T02:56:32.575Z,3.38
2023-01-17T03:00:52.806Z,3.37
2023-01-17T03:05:04.903Z,3.37
2023-01-17T03:09:10.701Z,3.36
2023-01-17T03:13:14.479Z,3.34
2023-01-17T03:17:18.133Z,3.35
2023-01-17T03:21:24.019Z,3.35
2023-01-17T03:25:27.549Z,3.36
2023-01-17T03:29:32.728Z,3.38
2023-01-17T03:33:37.409Z,3.39
2023-01-17T03:37:44.324Z,3.34
2023-01-17T03:41:48.717Z,3.32
2023-01-17T03:45:55.253Z,3.29
2023-01-17T03:49:58.774Z,3.26
2023-01-17T03:54:04.928Z,3.24
2023-01-17T03:58:10.722Z,3.22
2023-01-17T04:02:15.143Z,3.21
2023-01-17T04:06:19.267Z,3.21
2023-01-17T04:10:23.439Z,3.21
2023-01-17T04:14:27.805Z,3.20
2023-01-17T04:18:31.232Z,3.19
2023-01-17T04:22:34.740Z,3.18
2023-01-17T04:26:38.131Z,3.16
2023-01-17T04:30:42.163Z,3.16
2023-01-17T04:34:45.836Z,3.17
2023-01-17T04:38:49.280Z,3.17
2023-01-17T04:42:54.525Z,3.18
2023-01-17T04:46:57.978Z,3.17
2023-01-17T04:51:06.259Z,3.15
2023-01-17T04:55:16.791Z,3.14
2023-01-17T04:59:20.327Z,3.15
2023-01-17T05:03:25.424Z,3.12
2023-01-17T05:07:29.698Z,3.12
2023-01-17T05:11:34.587Z,3.10
2023-01-17T05:15:43.787Z,3.13
2023-01-17T05:19:48.705Z,3.14
2023-01-17T05:23:52.871Z,3.14
2023-01-17T05:28:05.938Z,3.14
2023-01-17T05:32:19.092Z,3.12
2023-01-17T05:36:29.180Z,3.10
2023-01-17T05:40:35.997Z,3.08
2023-01-17T05:44:39.736Z,3.06
2023-01-17T05:48:43.413Z,3.05
2023-01-17T05:53:01.782Z,3.02
2023-01-17T05:57:11.761Z,3.02
2023-01-17T06:01:15.513Z,3.01
2023-01-17T06:05:19.838Z,3.01
2023-01-17T06:09:23.351Z,3.02
2023-01-17T06:13:27.476Z,3.02
2023-01-17T06:17:31.972Z,3.01
2023-01-17T06:21:41.835Z,2.98
2023-01-17T06:25:52.103Z,2.94
2023-01-17T06:29:57.257Z,2.93
2023-01-17T06:34:06.026Z,2.88
2023-01-17T06:38:20.449Z,2.84
2023-01-17T06:42:24.158Z,2.79
2023-01-17T06:46:31.962Z,2.75
2023-01-17T06:50:35.772Z,2.70
2023-01-17T06:54:40.060Z,2.64
2023-01-17T06:58:44.145Z,2.58
2023-01-17T07:02:54.348Z,2.54
2023-01-17T07:07:04.773Z,2.50
2023-01-17T07:11:09.331Z,2.48
2023-01-17T07:15:15.047Z,2.43
2023-01-17T07:19:18.745Z,2.40
2023-01-17T07:23:27.337Z,2.40
2023-01-17T07:27:33.536Z,2.45
2023-01-17T07:31:44.593Z,2.49
2023-01-17T07:35:48.046Z,2.50
2023-01-17T07:39:51.558Z,2.51
2023-01-17T07:43:56.384Z,2.51
2023-01-17T07:47:59.966Z,2.52
2023-01-17T07:52:10.259Z,2.56
2023-01-17T07:56:13.906Z,2.61
2023-01-17T08:00:18.443Z,2.66
2023-01-17T08:04:26.479Z,2.71
2023-01-17T08:08:30.159Z,2.77
2023-01-17T08:12:39.149Z,2.85
2023-01-17T08:16:43.445Z,2.93
2023-01-17T08:20:47.082Z,2.96
2023-01-17T08:24:50.845Z,3.00
2023-01-17T08:29:00.746Z,3.02
2023-01-17T08:33:04.365Z,3.04
2023-01-17T08:37:07.952Z,3.03
2023-01-17T08:41:13.208Z,3.04
2023-01-17T08:45:16.825Z,3.08
2023-01-17T08:49:23.199Z,3.14
2023-01-17T08:53:26.689Z,3.20
2023-01-17T08:57:31.793Z,3.24
2023-01-17T09:01:46.751Z,3.28
2023-01-17T09:06:05.798Z,3.34
2023-01-17T09:10:09.828Z,3.40
2023-01-17T09:14:13.984Z,3.46
2023-01-17T09:18:17.718Z,3.50
2023-01-17T09:22:21.361Z,3.54
2023-01-17T09:26:27.246Z,3.58
2023-01-17T09:30:30.714Z,3.62
2023-01-17T09:34:34.204Z,3.63
2023-01-17T09:38:38.067Z,3.69
2023-01-17T09:42:42.500Z,3.72
2023-01-17T09:46:49.128Z,3.74
2023-01-17T09:51:05.108Z,3.72
2023-01-17T09:55:14.927Z,3.72
2023-01-17T09:59:34.977Z,3.75
2023-01-17T10:03:58.058Z,3.80
2023-01-17T10:08:24.272Z,3.82
2023-01-17T10:12:40.060Z,3.85
2023-01-17T10:16:52.828Z,3.84
2023-01-17T10:21:27.627Z,3.87
2023-01-17T10:25:52.586Z,3.89
2023-01-17T10:29:56.436Z,3.88
2023-01-17T10:34:45.692Z,3.89
2023-01-17T10:39:11.929Z,3.89
2023-01-17T10:43:41.730Z,3.89
2023-01-17T10:47:51.178Z,3.91
2023-01-17T10:52:32.495Z,3.94
2023-01-17T10:56:40.611Z,3.98
2023-01-17T11:00:49.802Z,4.01
2023-01-17T11:04:58.618Z,4.02
2023-01-17T11:09:07.352Z,4.03
2023-01-17T11:13:31.380Z,4.06
2023-01-17T11:18:02.340Z,4.13
2023-01-17T11:22:08.715Z,4.19
2023-01-17T11:26:52.402Z,4.25
2023-01-17T11:31:25.962Z,4.31
2023-01-17T11:35:38.693Z,4.34
2023-01-17T11:39:45.464Z,4.37
2023-01-17T11:44:04.643Z,4.40
2023-01-17T11:48:08.614Z,4.40
2023-01-17T11:52:37.731Z,4.42
2023-01-17T11:56:47.367Z,4.44
2023-01-17T12:01:36.418Z,4.48
2023-01-17T12:06:12.133Z,4.48
2023-01-17T12:10:44.209Z,4.49
2023-01-17T12:15:48.332Z,4.51
2023-01-17T12:19:51.931Z,4.56
2023-01-17T12:24:39.939Z,4.57
2023-01-17T12:29:52.612Z,4.59
2023-01-17T12:34:18.355Z,4.64
2023-01-17T12:38:39.615Z,4.73
2023-01-17T12:43:29.617Z,4.86
2023-01-17T12:47:40.983Z,5.03
2023-01-17T12:51:51.826Z,5.17
2023-01-17T12:56:27.320Z,5.27
2023-01-17T13:00:39.374Z,5.35
2023-01-17T13:05:42.610Z,5.41
2023-01-17T13:09:57.127Z,5.44
2023-01-17T13:14:23.704Z,5.41
2023-01-17T13:18:31.231Z,5.40
2023-01-17T13:22:38.300Z,5.38
2023-01-17T13:27:25.551Z,5.37
2023-01-17T13:32:00.895Z,5.39
2023-01-17T13:36:25.655Z,5.37
2023-01-17T13:41:02.647Z,5.35
2023-01-17T13:45:33.740Z,5.34
2023-01-17T13:50:02.708Z,5.34
2023-01-17T13:54:18.015Z,5.31
2023-01-17T13:59:15.437Z,5.27
2023-01-17T14:03:49.939Z,5.21
2023-01-17T14:08:21.514Z,5.15
2023-01-17T14:12:46.051Z,5.06
2023-01-17T14:16:59.190Z,4.94
2023-01-17T14:21:29.738Z,4.86
2023-01-17T14:25:46.417Z,4.77
2023-01-17T14:30:05.722Z,4.64
2023-01-17T14:34:31.120Z,4.49
2023-01-17T14:38:43.132Z,4.34
2023-01-17T14:43:02.021Z,4.21
2023-01-17T14:47:20.431Z,4.08
2023-01-17T14:51:43.464Z,3.99
2023-01-17T14:56:15.308Z,3.90
2023-01-17T15:00:42.351Z,3.76
2023-01-17T15:05:00.044Z,3.60
2023-01-17T15:09:53.198Z,3.48
2023-01-17T15:14:08.351Z,3.39
2023-01-17T15:18:39.085Z,3.32
2023-01-17T15:23:29.567Z,3.21
2023-01-17T15:27:40.483Z,3.11
2023-01-17T15:32:14.370Z,3.02
2023-01-17T15:36:52.787Z,2.95
2023-01-17T15:41:17.000Z,2.87
2023-01-17T15:45:37.902Z,2.77
2023-01-17T15:49:55.401Z,2.71
2023-01-17T15:54:15.869Z,2.64
